sensor_id;sensor_type;location;lat;lon;timestamp;temperature;humidity
54540;SHT30;40438;52.992;18.604;2023-09-08T00:01:43;17.94;77.22
54540;SHT30;40438;52.992;18.604;2023-09-08T00:04:08;17.99;77.26
54540;SHT30;40438;52.992;18.604;2023-09-08T00:06:34;17.96;77.15
54540;SHT30;40438;52.992;18.604;2023-09-08T00:09:02;17.98;76.66
54540;SHT30;40438;52.992;18.604;2023-09-08T00:11:28;17.94;76.39
54540;SHT30;40438;52.992;18.604;2023-09-08T00:13:54;17.86;76.46
54540;SHT30;40438;52.992;18.604;2023-09-08T00:16:21;17.82;76.32
54540;SHT30;40438;52.992;18.604;2023-09-08T00:18:47;17.78;76.29
54540;SHT30;40438;52.992;18.604;2023-09-08T00:21:13;17.75;76.30
54540;SHT30;40438;52.992;18.604;2023-09-08T00:23:38;17.71;76.34
54540;SHT30;40438;52.992;18.604;2023-09-08T00:26:04;17.67;76.18
54540;SHT30;40438;52.992;18.604;2023-09-08T00:28:31;17.64;76.35
54540;SHT30;40438;52.992;18.604;2023-09-08T00:30:58;17.58;76.31
54540;SHT30;40438;52.992;18.604;2023-09-08T00:33:25;17.58;76.28
54540;SHT30;40438;52.992;18.604;2023-09-08T00:35:51;17.58;76.39
54540;SHT30;40438;52.992;18.604;2023-09-08T00:38:17;17.58;76.36
54540;SHT30;40438;52.992;18.604;2023-09-08T00:40:43;17.58;76.44
54540;SHT30;40438;52.992;18.604;2023-09-08T00:43:09;17.54;76.56
54540;SHT30;40438;52.992;18.604;2023-09-08T00:45:36;17.48;76.87
54540;SHT30;40438;52.992;18.604;2023-09-08T00:48:04;17.41;76.77
54540;SHT30;40438;52.992;18.604;2023-09-08T00:50:31;17.38;76.73
54540;SHT30;40438;52.992;18.604;2023-09-08T00:52:57;17.33;77.05
54540;SHT30;40438;52.992;18.604;2023-09-08T00:55:23;17.28;77.05
54540;SHT30;40438;52.992;18.604;2023-09-08T00:57:50;17.26;77.18
54540;SHT30;40438;52.992;18.604;2023-09-08T01:00:16;17.20;77.20
54540;SHT30;40438;52.992;18.604;2023-09-08T01:02:42;17.19;77.46
54540;SHT30;40438;52.992;18.604;2023-09-08T01:05:08;17.17;77.69
54540;SHT30;40438;52.992;18.604;2023-09-08T01:07:35;17.19;77.84
54540;SHT30;40438;52.992;18.604;2023-09-08T01:10:02;17.26;78.00
54540;SHT30;40438;52.992;18.604;2023-09-08T01:12:28;17.31;78.20
54540;SHT30;40438;52.992;18.604;2023-09-08T01:14:54;17.36;78.30
54540;SHT30;40438;52.992;18.604;2023-09-08T01:17:19;17.43;77.88
54540;SHT30;40438;52.992;18.604;2023-09-08T01:19:46;17.46;77.72
54540;SHT30;40438;52.992;18.604;2023-09-08T01:22:30;17.46;77.67
54540;SHT30;40438;52.992;18.604;2023-09-08T01:25:06;17.43;77.54
54540;SHT30;40438;52.992;18.604;2023-09-08T01:27:35;17.41;77.33
54540;SHT30;40438;52.992;18.604;2023-09-08T01:30:05;17.41;77.10
54540;SHT30;40438;52.992;18.604;2023-09-08T01:32:32;17.40;76.95
54540;SHT30;40438;52.992;18.604;2023-09-08T01:34:58;17.36;76.89
54540;SHT30;40438;52.992;18.604;2023-09-08T01:37:25;17.30;77.23
54540;SHT30;40438;52.992;18.604;2023-09-08T01:39:51;17.22;77.32
54540;SHT30;40438;52.992;18.604;2023-09-08T01:42:18;17.15;77.48
54540;SHT30;40438;52.992;18.604;2023-09-08T01:44:44;17.07;77.55
54540;SHT30;40438;52.992;18.604;2023-09-08T01:47:10;16.98;77.38
54540;SHT30;40438;52.992;18.604;2023-09-08T01:49:36;16.91;77.56
54540;SHT30;40438;52.992;18.604;2023-09-08T01:52:01;16.86;77.79
54540;SHT30;40438;52.992;18.604;2023-09-08T01:54:28;16.79;77.92
54540;SHT30;40438;52.992;18.604;2023-09-08T01:56:54;16.73;78.28
54540;SHT30;40438;52.992;18.604;2023-09-08T01:59:21;16.72;78.48
54540;SHT30;40438;52.992;18.604;2023-09-08T02:01:47;16.73;78.62
54540;SHT30;40438;52.992;18.604;2023-09-08T02:04:13;16.78;78.57
54540;SHT30;40438;52.992;18.604;2023-09-08T02:06:39;16.78;78.63
54540;SHT30;40438;52.992;18.604;2023-09-08T02:09:04;16.72;78.72
54540;SHT30;40438;52.992;18.604;2023-09-08T02:11:31;16.72;78.65
54540;SHT30;40438;52.992;18.604;2023-09-08T02:13:57;16.72;78.60
54540;SHT30;40438;52.992;18.604;2023-09-08T02:16:24;16.69;78.72
54540;SHT30;40438;52.992;18.604;2023-09-08T02:18:50;16.71;78.90
54540;SHT30;40438;52.992;18.604;2023-09-08T02:21:16;16.71;78.94
54540;SHT30;40438;52.992;18.604;2023-09-08T02:23:42;16.67;78.81
54540;SHT30;40438;52.992;18.604;2023-09-08T02:26:08;16.62;78.69
54540;SHT30;40438;52.992;18.604;2023-09-08T02:28:34;16.65;78.71
54540;SHT30;40438;52.992;18.604;2023-09-08T02:31:00;16.64;78.89
54540;SHT30;40438;52.992;18.604;2023-09-08T02:33:27;16.65;79.20
54540;SHT30;40438;52.992;18.604;2023-09-08T02:35:53;16.68;78.93
54540;SHT30;40438;52.992;18.604;2023-09-08T02:38:19;16.71;78.26
54540;SHT30;40438;52.992;18.604;2023-09-08T02:40:45;16.67;77.90
54540;SHT30;40438;52.992;18.604;2023-09-08T02:43:12;16.62;77.96
54540;SHT30;40438;52.992;18.604;2023-09-08T02:45:38;16.61;78.03
54540;SHT30;40438;52.992;18.604;2023-09-08T02:48:05;16.52;78.12
54540;SHT30;40438;52.992;18.604;2023-09-08T02:50:33;16.44;78.21
54540;SHT30;40438;52.992;18.604;2023-09-08T02:52:58;16.34;78.18
54540;SHT30;40438;52.992;18.604;2023-09-08T02:55:24;16.28;78.23
54540;SHT30;40438;52.992;18.604;2023-09-08T02:57:50;16.27;78.25
54540;SHT30;40438;52.992;18.604;2023-09-08T03:00:16;16.26;77.99
54540;SHT30;40438;52.992;18.604;2023-09-08T03:02:42;16.21;77.92
54540;SHT30;40438;52.992;18.604;2023-09-08T03:05:08;16.23;77.77
54540;SHT30;40438;52.992;18.604;2023-09-08T03:07:37;16.26;77.68
54540;SHT30;40438;52.992;18.604;2023-09-08T03:10:03;16.23;77.65
54540;SHT30;40438;52.992;18.604;2023-09-08T03:12:30;16.20;77.60
54540;SHT30;40438;52.992;18.604;2023-09-08T03:14:56;16.07;78.05
54540;SHT30;40438;52.992;18.604;2023-09-08T03:17:22;16.03;77.94
54540;SHT30;40438;52.992;18.604;2023-09-08T03:19:48;15.97;78.29
54540;SHT30;40438;52.992;18.604;2023-09-08T03:22:13;15.90;78.21
54540;SHT30;40438;52.992;18.604;2023-09-08T03:24:41;15.87;78.08
54540;SHT30;40438;52.992;18.604;2023-09-08T03:27:06;15.83;78.07
54540;SHT30;40438;52.992;18.604;2023-09-08T03:29:32;15.82;77.99
54540;SHT30;40438;52.992;18.604;2023-09-08T03:31:59;15.79;77.85
54540;SHT30;40438;52.992;18.604;2023-09-08T03:34:24;15.73;77.82
54540;SHT30;40438;52.992;18.604;2023-09-08T03:36:53;15.69;78.03
54540;SHT30;40438;52.992;18.604;2023-09-08T03:39:19;15.63;78.08
54540;SHT30;40438;52.992;18.604;2023-09-08T03:41:47;15.58;78.40
54540;SHT30;40438;52.992;18.604;2023-09-08T03:44:13;15.52;78.27
54540;SHT30;40438;52.992;18.604;2023-09-08T03:46:38;15.54;78.28
54540;SHT30;40438;52.992;18.604;2023-09-08T03:49:04;15.47;78.34
54540;SHT30;40438;52.992;18.604;2023-09-08T03:51:30;15.49;78.11
54540;SHT30;40438;52.992;18.604;2023-09-08T03:53:56;15.47;77.93
54540;SHT30;40438;52.992;18.604;2023-09-08T03:56:22;15.47;77.58
54540;SHT30;40438;52.992;18.604;2023-09-08T03:58:49;15.42;77.51
54540;SHT30;40438;52.992;18.604;2023-09-08T04:01:15;15.45;77.23
54540;SHT30;40438;52.992;18.604;2023-09-08T04:03:40;15.38;77.35
54540;SHT30;40438;52.992;18.604;2023-09-08T04:06:06;15.37;77.46
54540;SHT30;40438;52.992;18.604;2023-09-08T04:08:32;15.31;77.52
54540;SHT30;40438;52.992;18.604;2023-09-08T04:10:58;15.32;77.60
54540;SHT30;40438;52.992;18.604;2023-09-08T04:13:25;15.28;77.60
54540;SHT30;40438;52.992;18.604;2023-09-08T04:15:52;15.24;77.71
54540;SHT30;40438;52.992;18.604;2023-09-08T04:18:18;15.22;78.13
54540;SHT30;40438;52.992;18.604;2023-09-08T04:20:44;15.26;78.19
54540;SHT30;40438;52.992;18.604;2023-09-08T04:23:10;15.27;78.20
54540;SHT30;40438;52.992;18.604;2023-09-08T04:25:36;15.32;78.35
54540;SHT30;40438;52.992;18.604;2023-09-08T04:28:02;15.37;78.35
54540;SHT30;40438;52.992;18.604;2023-09-08T04:30:28;15.34;78.54
54540;SHT30;40438;52.992;18.604;2023-09-08T04:32:55;15.34;78.91
54540;SHT30;40438;52.992;18.604;2023-09-08T04:35:21;15.32;79.19
54540;SHT30;40438;52.992;18.604;2023-09-08T04:37:46;15.31;79.13
54540;SHT30;40438;52.992;18.604;2023-09-08T04:40:12;15.35;79.32
54540;SHT30;40438;52.992;18.604;2023-09-08T04:42:38;15.38;79.28
54540;SHT30;40438;52.992;18.604;2023-09-08T04:45:06;15.47;79.29
54540;SHT30;40438;52.992;18.604;2023-09-08T04:47:33;15.51;79.15
54540;SHT30;40438;52.992;18.604;2023-09-08T04:50:00;15.57;79.06
54540;SHT30;40438;52.992;18.604;2023-09-08T04:52:26;15.63;79.10
54540;SHT30;40438;52.992;18.604;2023-09-08T04:54:52;15.63;79.15
54540;SHT30;40438;52.992;18.604;2023-09-08T04:57:18;15.69;79.63
54540;SHT30;40438;52.992;18.604;2023-09-08T04:59:45;15.76;79.71
54540;SHT30;40438;52.992;18.604;2023-09-08T05:02:11;15.86;79.77
54540;SHT30;40438;52.992;18.604;2023-09-08T05:04:37;15.89;79.70
54540;SHT30;40438;52.992;18.604;2023-09-08T05:07:05;15.94;79.70
54540;SHT30;40438;52.992;18.604;2023-09-08T05:09:30;15.96;79.77
54540;SHT30;40438;52.992;18.604;2023-09-08T05:11:56;16.03;79.84
54540;SHT30;40438;52.992;18.604;2023-09-08T05:14:22;16.09;79.87
54540;SHT30;40438;52.992;18.604;2023-09-08T05:16:50;16.20;79.82
54540;SHT30;40438;52.992;18.604;2023-09-08T05:19:20;16.31;79.45
54540;SHT30;40438;52.992;18.604;2023-09-08T05:21:46;16.40;79.25
54540;SHT30;40438;52.992;18.604;2023-09-08T05:24:14;16.45;79.10
54540;SHT30;40438;52.992;18.604;2023-09-08T05:26:42;16.52;78.90
54540;SHT30;40438;52.992;18.604;2023-09-08T05:29:07;16.59;78.68
54540;SHT30;40438;52.992;18.604;2023-09-08T05:31:33;16.61;78.60
54540;SHT30;40438;52.992;18.604;2023-09-08T05:33:59;16.71;78.51
54540;SHT30;40438;52.992;18.604;2023-09-08T05:36:25;16.78;78.40
54540;SHT30;40438;52.992;18.604;2023-09-08T05:38:52;16.88;78.28
54540;SHT30;40438;52.992;18.604;2023-09-08T05:41:20;16.96;78.04
54540;SHT30;40438;52.992;18.604;2023-09-08T05:43:45;17.00;78.02
54540;SHT30;40438;52.992;18.604;2023-09-08T05:46:11;17.06;78.16
54540;SHT30;40438;52.992;18.604;2023-09-08T05:48:37;17.13;78.08
54540;SHT30;40438;52.992;18.604;2023-09-08T05:51:03;17.20;78.06
54540;SHT30;40438;52.992;18.604;2023-09-08T05:53:29;17.27;78.09
54540;SHT30;40438;52.992;18.604;2023-09-08T05:55:55;17.31;77.98
54540;SHT30;40438;52.992;18.604;2023-09-08T05:58:22;17.40;77.72
54540;SHT30;40438;52.992;18.604;2023-09-08T06:00:48;17.48;77.59
54540;SHT30;40438;52.992;18.604;2023-09-08T06:03:14;17.54;77.65
54540;SHT30;40438;52.992;18.604;2023-09-08T06:05:40;17.61;77.60
54540;SHT30;40438;52.992;18.604;2023-09-08T06:08:05;17.68;77.67
54540;SHT30;40438;52.992;18.604;2023-09-08T06:10:31;17.75;77.64
54540;SHT30;40438;52.992;18.604;2023-09-08T06:12:58;17.81;77.54
54540;SHT30;40438;52.992;18.604;2023-09-08T06:15:25;17.88;77.56
54540;SHT30;40438;52.992;18.604;2023-09-08T06:17:51;17.99;77.37
54540;SHT30;40438;52.992;18.604;2023-09-08T06:20:17;18.02;77.36
54540;SHT30;40438;52.992;18.604;2023-09-08T06:22:43;18.16;76.98
54540;SHT30;40438;52.992;18.604;2023-09-08T06:25:10;18.26;76.97
54540;SHT30;40438;52.992;18.604;2023-09-08T06:27:36;18.32;76.62
54540;SHT30;40438;52.992;18.604;2023-09-08T06:30:02;18.40;76.61
54540;SHT30;40438;52.992;18.604;2023-09-08T06:32:31;18.44;76.33
54540;SHT30;40438;52.992;18.604;2023-09-08T06:34:57;18.54;76.49
54540;SHT30;40438;52.992;18.604;2023-09-08T06:37:23;18.60;76.38
54540;SHT30;40438;52.992;18.604;2023-09-08T06:39:49;18.71;76.34
54540;SHT30;40438;52.992;18.604;2023-09-08T06:42:15;18.83;76.22
54540;SHT30;40438;52.992;18.604;2023-09-08T06:44:49;18.92;76.33
54540;SHT30;40438;52.992;18.604;2023-09-08T06:47:14;18.96;75.97
54540;SHT30;40438;52.992;18.604;2023-09-08T06:49:42;19.06;75.84
54540;SHT30;40438;52.992;18.604;2023-09-08T06:52:08;19.16;75.86
54540;SHT30;40438;52.992;18.604;2023-09-08T06:54:33;19.31;75.74
54540;SHT30;40438;52.992;18.604;2023-09-08T06:56:59;19.42;75.74
54540;SHT30;40438;52.992;18.604;2023-09-08T06:59:25;19.50;75.60
54540;SHT30;40438;52.992;18.604;2023-09-08T07:01:51;19.67;75.35
54540;SHT30;40438;52.992;18.604;2023-09-08T07:04:19;19.78;75.04
54540;SHT30;40438;52.992;18.604;2023-09-08T07:06:46;19.94;74.79
54540;SHT30;40438;52.992;18.604;2023-09-08T07:09:12;20.11;74.06
54540;SHT30;40438;52.992;18.604;2023-09-08T07:11:38;20.21;73.84
54540;SHT30;40438;52.992;18.604;2023-09-08T07:14:04;20.38;73.63
54540;SHT30;40438;52.992;18.604;2023-09-08T07:16:30;20.52;73.35
54540;SHT30;40438;52.992;18.604;2023-09-08T07:18:57;20.68;73.02
54540;SHT30;40438;52.992;18.604;2023-09-08T07:21:23;20.80;72.61
54540;SHT30;40438;52.992;18.604;2023-09-08T07:23:50;20.96;72.63
54540;SHT30;40438;52.992;18.604;2023-09-08T07:26:17;21.11;72.32
54540;SHT30;40438;52.992;18.604;2023-09-08T07:28:43;21.28;71.96
54540;SHT30;40438;52.992;18.604;2023-09-08T07:31:13;21.41;71.61
54540;SHT30;40438;52.992;18.604;2023-09-08T07:33:42;21.61;71.05
54540;SHT30;40438;52.992;18.604;2023-09-08T07:36:09;21.73;70.69
54540;SHT30;40438;52.992;18.604;2023-09-08T07:38:36;21.82;70.36
54540;SHT30;40438;52.992;18.604;2023-09-08T07:41:04;21.96;70.00
54540;SHT30;40438;52.992;18.604;2023-09-08T07:43:31;22.09;69.63
54540;SHT30;40438;52.992;18.604;2023-09-08T07:45:57;22.14;69.23
54540;SHT30;40438;52.992;18.604;2023-09-08T07:48:23;22.30;68.75
54540;SHT30;40438;52.992;18.604;2023-09-08T07:50:48;22.43;68.65
54540;SHT30;40438;52.992;18.604;2023-09-08T07:53:14;22.60;68.80
54540;SHT30;40438;52.992;18.604;2023-09-08T07:55:40;22.68;67.18
54540;SHT30;40438;52.992;18.604;2023-09-08T07:58:07;22.74;66.56
54540;SHT30;40438;52.992;18.604;2023-09-08T08:00:33;22.79;66.31
54540;SHT30;40438;52.992;18.604;2023-09-08T08:02:59;22.89;66.43
54540;SHT30;40438;52.992;18.604;2023-09-08T08:05:25;23.09;62.59
54540;SHT30;40438;52.992;18.604;2023-09-08T08:07:51;23.15;62.21
54540;SHT30;40438;52.992;18.604;2023-09-08T08:10:18;23.33;62.14
54540;SHT30;40438;52.992;18.604;2023-09-08T08:12:44;23.54;61.51
54540;SHT30;40438;52.992;18.604;2023-09-08T08:15:11;23.76;62.18
54540;SHT30;40438;52.992;18.604;2023-09-08T08:17:37;23.85;60.81
54540;SHT30;40438;52.992;18.604;2023-09-08T08:20:04;24.04;60.53
54540;SHT30;40438;52.992;18.604;2023-09-08T08:22:30;24.22;59.39
54540;SHT30;40438;52.992;18.604;2023-09-08T08:24:56;24.41;59.02
54540;SHT30;40438;52.992;18.604;2023-09-08T08:27:21;24.57;57.44
54540;SHT30;40438;52.992;18.604;2023-09-08T08:29:47;24.73;56.52
54540;SHT30;40438;52.992;18.604;2023-09-08T08:32:14;24.96;57.18
54540;SHT30;40438;52.992;18.604;2023-09-08T08:34:40;25.04;56.80
54540;SHT30;40438;52.992;18.604;2023-09-08T08:37:06;25.25;56.87
54540;SHT30;40438;52.992;18.604;2023-09-08T08:39:32;25.46;56.87
54540;SHT30;40438;52.992;18.604;2023-09-08T08:41:57;25.79;56.66
54540;SHT30;40438;52.992;18.604;2023-09-08T08:44:23;26.07;55.77
54540;SHT30;40438;52.992;18.604;2023-09-08T08:46:50;26.39;54.09
54540;SHT30;40438;52.992;18.604;2023-09-08T08:49:18;26.82;53.23
54540;SHT30;40438;52.992;18.604;2023-09-08T08:51:45;27.20;52.24
54540;SHT30;40438;52.992;18.604;2023-09-08T08:54:11;27.56;51.37
54540;SHT30;40438;52.992;18.604;2023-09-08T08:56:38;27.71;51.24
54540;SHT30;40438;52.992;18.604;2023-09-08T08:59:04;27.92;50.07
54540;SHT30;40438;52.992;18.604;2023-09-08T09:01:30;28.05;50.05
54540;SHT30;40438;52.992;18.604;2023-09-08T09:03:58;28.32;48.70
54540;SHT30;40438;52.992;18.604;2023-09-08T09:06:25;28.47;49.53
54540;SHT30;40438;52.992;18.604;2023-09-08T09:08:51;28.62;49.26
54540;SHT30;40438;52.992;18.604;2023-09-08T09:11:17;29.05;47.97
54540;SHT30;40438;52.992;18.604;2023-09-08T09:13:42;29.07;46.72
54540;SHT30;40438;52.992;18.604;2023-09-08T09:16:08;28.83;47.56
54540;SHT30;40438;52.992;18.604;2023-09-08T09:18:34;28.87;45.91
54540;SHT30;40438;52.992;18.604;2023-09-08T09:21:01;29.10;45.92
54540;SHT30;40438;52.992;18.604;2023-09-08T09:23:29;28.98;45.76
54540;SHT30;40438;52.992;18.604;2023-09-08T09:25:55;29.03;46.34
54540;SHT30;40438;52.992;18.604;2023-09-08T09:28:21;29.01;45.45
54540;SHT30;40438;52.992;18.604;2023-09-08T09:30:48;29.03;45.09
54540;SHT30;40438;52.992;18.604;2023-09-08T09:33:14;29.16;45.66
54540;SHT30;40438;52.992;18.604;2023-09-08T09:35:41;29.28;45.11
54540;SHT30;40438;52.992;18.604;2023-09-08T09:38:07;29.28;44.10
54540;SHT30;40438;52.992;18.604;2023-09-08T09:40:34;29.15;44.95
54540;SHT30;40438;52.992;18.604;2023-09-08T09:43:00;29.03;46.15
54540;SHT30;40438;52.992;18.604;2023-09-08T09:45:26;28.80;46.44
54540;SHT30;40438;52.992;18.604;2023-09-08T09:47:52;28.72;47.11
54540;SHT30;40438;52.992;18.604;2023-09-08T09:50:27;28.62;48.08
54540;SHT30;40438;52.992;18.604;2023-09-08T09:52:56;28.73;48.28
54540;SHT30;40438;52.992;18.604;2023-09-08T09:55:23;29.00;47.96
54540;SHT30;40438;52.992;18.604;2023-09-08T09:57:52;29.28;47.27
54540;SHT30;40438;52.992;18.604;2023-09-08T10:00:21;29.55;46.78
54540;SHT30;40438;52.992;18.604;2023-09-08T10:02:47;29.69;46.34
54540;SHT30;40438;52.992;18.604;2023-09-08T10:05:14;29.62;45.84
54540;SHT30;40438;52.992;18.604;2023-09-08T10:07:40;29.55;46.04
54540;SHT30;40438;52.992;18.604;2023-09-08T10:10:07;29.38;45.97
54540;SHT30;40438;52.992;18.604;2023-09-08T10:12:34;29.24;46.11
54540;SHT30;40438;52.992;18.604;2023-09-08T10:15:05;29.08;46.50
54540;SHT30;40438;52.992;18.604;2023-09-08T10:17:33;28.94;46.78
54540;SHT30;40438;52.992;18.604;2023-09-08T10:20:00;28.73;47.22
54540;SHT30;40438;52.992;18.604;2023-09-08T10:22:30;28.59;47.30
54540;SHT30;40438;52.992;18.604;2023-09-08T10:24:57;28.39;47.54
54540;SHT30;40438;52.992;18.604;2023-09-08T10:27:26;28.24;48.53
54540;SHT30;40438;52.992;18.604;2023-09-08T10:29:52;28.36;48.63
54540;SHT30;40438;52.992;18.604;2023-09-08T10:32:20;28.59;47.32
54540;SHT30;40438;52.992;18.604;2023-09-08T10:34:48;28.90;46.71
54540;SHT30;40438;52.992;18.604;2023-09-08T10:37:19;29.31;45.55
54540;SHT30;40438;52.992;18.604;2023-09-08T10:39:45;29.66;45.03
54540;SHT30;40438;52.992;18.604;2023-09-08T10:42:21;30.12;42.37
54540;SHT30;40438;52.992;18.604;2023-09-08T10:45:01;30.45;42.88
54540;SHT30;40438;52.992;18.604;2023-09-08T10:47:31;30.83;42.50
54540;SHT30;40438;52.992;18.604;2023-09-08T10:49:57;31.16;41.79
54540;SHT30;40438;52.992;18.604;2023-09-08T10:52:24;31.36;41.46
54540;SHT30;40438;52.992;18.604;2023-09-08T10:54:51;31.64;40.71
54540;SHT30;40438;52.992;18.604;2023-09-08T10:57:18;31.63;40.69
54540;SHT30;40438;52.992;18.604;2023-09-08T10:59:51;31.64;40.32
54540;SHT30;40438;52.992;18.604;2023-09-08T11:05:17;31.74;39.66
54540;SHT30;40438;52.992;18.604;2023-09-08T11:07:44;31.97;40.12
54540;SHT30;40438;52.992;18.604;2023-09-08T11:10:11;32.25;40.00
54540;SHT30;40438;52.992;18.604;2023-09-08T11:12:37;32.38;39.89
54540;SHT30;40438;52.992;18.604;2023-09-08T11:15:05;32.28;39.71
54540;SHT30;40438;52.992;18.604;2023-09-08T11:17:31;32.22;39.85
54540;SHT30;40438;52.992;18.604;2023-09-08T11:19:57;32.07;39.44
54540;SHT30;40438;52.992;18.604;2023-09-08T11:22:25;32.04;39.37
54540;SHT30;40438;52.992;18.604;2023-09-08T11:24:52;31.94;39.58
54540;SHT30;40438;52.992;18.604;2023-09-08T11:27:18;31.82;39.66
54540;SHT30;40438;52.992;18.604;2023-09-08T11:29:44;31.84;39.43
54540;SHT30;40438;52.992;18.604;2023-09-08T11:32:10;31.87;39.59
54540;SHT30;40438;52.992;18.604;2023-09-08T11:34:36;31.89;39.47
54540;SHT30;40438;52.992;18.604;2023-09-08T11:37:06;31.95;38.89
54540;SHT30;40438;52.992;18.604;2023-09-08T11:39:37;31.99;38.69
54540;SHT30;40438;52.992;18.604;2023-09-08T11:42:03;31.95;39.43
54540;SHT30;40438;52.992;18.604;2023-09-08T11:44:29;31.94;39.79
54540;SHT30;40438;52.992;18.604;2023-09-08T11:46:55;31.95;39.64
54540;SHT30;40438;52.992;18.604;2023-09-08T11:49:20;32.01;39.76
54540;SHT30;40438;52.992;18.604;2023-09-08T11:51:46;32.04;39.59
54540;SHT30;40438;52.992;18.604;2023-09-08T11:54:12;31.94;39.74
54540;SHT30;40438;52.992;18.604;2023-09-08T11:56:40;31.77;40.08
54540;SHT30;40438;52.992;18.604;2023-09-08T11:59:06;31.70;40.28
54540;SHT30;40438;52.992;18.604;2023-09-08T12:01:31;31.88;39.33
54540;SHT30;40438;52.992;18.604;2023-09-08T12:03:57;32.21;38.99
54540;SHT30;40438;52.992;18.604;2023-09-08T12:06:24;32.57;38.57
54540;SHT30;40438;52.992;18.604;2023-09-08T12:08:50;32.84;38.44
54540;SHT30;40438;52.992;18.604;2023-09-08T12:11:16;33.17;37.78
54540;SHT30;40438;52.992;18.604;2023-09-08T12:13:43;33.41;37.19
54540;SHT30;40438;52.992;18.604;2023-09-08T12:16:17;33.59;36.84
54540;SHT30;40438;52.992;18.604;2023-09-08T12:18:43;33.51;36.96
54540;SHT30;40438;52.992;18.604;2023-09-08T12:21:09;33.59;36.58
54540;SHT30;40438;52.992;18.604;2023-09-08T12:23:46;33.75;36.26
54540;SHT30;40438;52.992;18.604;2023-09-08T12:26:12;33.71;36.48
54540;SHT30;40438;52.992;18.604;2023-09-08T12:28:38;33.58;36.63
54540;SHT30;40438;52.992;18.604;2023-09-08T12:31:05;33.68;36.52
54540;SHT30;40438;52.992;18.604;2023-09-08T12:33:31;33.69;36.51
54540;SHT30;40438;52.992;18.604;2023-09-08T12:35:57;33.68;36.39
54540;SHT30;40438;52.992;18.604;2023-09-08T12:38:23;33.83;35.65
54540;SHT30;40438;52.992;18.604;2023-09-08T12:40:49;33.79;35.39
54540;SHT30;40438;52.992;18.604;2023-09-08T12:43:14;33.86;35.84
54540;SHT30;40438;52.992;18.604;2023-09-08T12:45:40;33.86;35.99
54540;SHT30;40438;52.992;18.604;2023-09-08T12:48:08;33.91;35.64
54540;SHT30;40438;52.992;18.604;2023-09-08T12:50:33;33.86;35.42
54540;SHT30;40438;52.992;18.604;2023-09-08T12:52:59;33.89;35.43
54540;SHT30;40438;52.992;18.604;2023-09-08T12:55:25;33.92;35.43
54540;SHT30;40438;52.992;18.604;2023-09-08T12:57:51;33.85;35.38
54540;SHT30;40438;52.992;18.604;2023-09-08T13:00:17;33.79;35.33
54540;SHT30;40438;52.992;18.604;2023-09-08T13:02:44;33.73;34.96
54540;SHT30;40438;52.992;18.604;2023-09-08T13:05:11;33.71;35.14
54540;SHT30;40438;52.992;18.604;2023-09-08T13:07:37;33.73;35.34
54540;SHT30;40438;52.992;18.604;2023-09-08T13:10:03;33.91;34.82
54540;SHT30;40438;52.992;18.604;2023-09-08T13:12:29;34.05;33.89
54540;SHT30;40438;52.992;18.604;2023-09-08T13:14:54;34.09;34.15
54540;SHT30;40438;52.992;18.604;2023-09-08T13:17:20;34.00;34.26
54540;SHT30;40438;52.992;18.604;2023-09-08T13:19:47;33.99;34.04
54540;SHT30;40438;52.992;18.604;2023-09-08T13:22:14;34.03;33.70
54540;SHT30;40438;52.992;18.604;2023-09-08T13:24:40;34.02;34.35
54540;SHT30;40438;52.992;18.604;2023-09-08T13:27:06;34.05;34.58
54540;SHT30;40438;52.992;18.604;2023-09-08T13:29:32;33.99;34.75
54540;SHT30;40438;52.992;18.604;2023-09-08T13:32:00;34.02;35.04
54540;SHT30;40438;52.992;18.604;2023-09-08T13:34:26;34.05;35.05
54540;SHT30;40438;52.992;18.604;2023-09-08T13:36:52;34.17;34.24
54540;SHT30;40438;52.992;18.604;2023-09-08T13:39:19;34.10;34.63
54540;SHT30;40438;52.992;18.604;2023-09-08T13:41:46;34.10;34.61
54540;SHT30;40438;52.992;18.604;2023-09-08T13:44:12;34.08;35.08
54540;SHT30;40438;52.992;18.604;2023-09-08T13:46:38;34.17;34.56
54540;SHT30;40438;52.992;18.604;2023-09-08T13:49:04;34.20;34.57
54540;SHT30;40438;52.992;18.604;2023-09-08T13:51:29;34.16;34.56
54540;SHT30;40438;52.992;18.604;2023-09-08T13:53:55;34.10;35.25
54540;SHT30;40438;52.992;18.604;2023-09-08T13:56:22;34.12;35.10
54540;SHT30;40438;52.992;18.604;2023-09-08T13:58:48;34.16;34.66
54540;SHT30;40438;52.992;18.604;2023-09-08T14:01:14;34.20;34.56
54540;SHT30;40438;52.992;18.604;2023-09-08T14:03:40;34.08;34.29
54540;SHT30;40438;52.992;18.604;2023-09-08T14:06:05;34.06;34.52
54540;SHT30;40438;52.992;18.604;2023-09-08T14:08:31;34.15;34.73
54540;SHT30;40438;52.992;18.604;2023-09-08T14:10:57;34.20;34.14
54540;SHT30;40438;52.992;18.604;2023-09-08T14:13:24;34.16;34.32
54540;SHT30;40438;52.992;18.604;2023-09-08T14:15:50;34.21;33.99
54540;SHT30;40438;52.992;18.604;2023-09-08T14:18:16;34.20;34.91
54540;SHT30;40438;52.992;18.604;2023-09-08T14:20:41;34.15;34.68
54540;SHT30;40438;52.992;18.604;2023-09-08T14:23:07;34.12;34.14
54540;SHT30;40438;52.992;18.604;2023-09-08T14:25:33;34.12;34.65
54540;SHT30;40438;52.992;18.604;2023-09-08T14:27:59;34.05;35.04
54540;SHT30;40438;52.992;18.604;2023-09-08T14:30:26;33.89;35.98
54540;SHT30;40438;52.992;18.604;2023-09-08T14:32:52;33.71;36.50
54540;SHT30;40438;52.992;18.604;2023-09-08T14:35:18;33.78;35.44
54540;SHT30;40438;52.992;18.604;2023-09-08T14:37:43;33.68;36.15
54540;SHT30;40438;52.992;18.604;2023-09-08T14:40:12;33.44;36.87
54540;SHT30;40438;52.992;18.604;2023-09-08T14:42:38;33.30;36.66
54540;SHT30;40438;52.992;18.604;2023-09-08T14:45:04;33.27;36.57
54540;SHT30;40438;52.992;18.604;2023-09-08T14:47:32;33.23;35.54
54540;SHT30;40438;52.992;18.604;2023-09-08T14:49:57;33.20;36.16
54540;SHT30;40438;52.992;18.604;2023-09-08T14:52:23;33.13;36.59
54540;SHT30;40438;52.992;18.604;2023-09-08T14:54:49;33.08;34.85
54540;SHT30;40438;52.992;18.604;2023-09-08T14:57:15;33.08;35.82
54540;SHT30;40438;52.992;18.604;2023-09-08T14:59:41;33.02;36.47
54540;SHT30;40438;52.992;18.604;2023-09-08T15:02:07;32.94;36.11
54540;SHT30;40438;52.992;18.604;2023-09-08T15:04:35;32.93;36.42
54540;SHT30;40438;52.992;18.604;2023-09-08T15:07:01;32.72;36.80
54540;SHT30;40438;52.992;18.604;2023-09-08T15:09:26;32.51;37.23
54540;SHT30;40438;52.992;18.604;2023-09-08T15:11:52;32.53;37.40
54540;SHT30;40438;52.992;18.604;2023-09-08T15:14:18;32.48;37.04